createdAt,value
2018-02-18T00:00:47.613Z,0
2018-02-18T00:01:49.210Z,0
2018-02-18T00:02:50.822Z,0
2018-02-18T00:03:52.417Z,0
2018-02-18T00:04:54.015Z,0
2018-02-18T00:05:55.617Z,0
2018-02-18T00:06:57.228Z,0
2018-02-18T00:07:58.829Z,0
2018-02-18T00:09:00.428Z,0
2018-02-18T00:10:02.028Z,0
2018-02-18T00:11:03.632Z,0
2018-02-18T00:12:05.237Z,0
2018-02-18T00:13:06.834Z,0
2018-02-18T00:14:08.437Z,0
2018-02-18T00:15:10.040Z,0
2018-02-18T00:16:11.668Z,0
2018-02-18T00:17:13.245Z,0
2018-02-18T00:18:14.847Z,0
2018-02-18T00:19:16.452Z,0
2018-02-18T00:20:18.050Z,0
2018-02-18T00:21:19.653Z,0
2018-02-18T00:22:21.258Z,0
2018-02-18T00:23:22.860Z,0
2018-02-18T00:24:24.466Z,0
2018-02-18T00:25:26.065Z,0
2018-02-18T00:26:27.665Z,0
2018-02-18T00:27:29.268Z,0
2018-02-18T00:28:30.871Z,0
2018-02-18T00:29:32.478Z,0
2018-02-18T00:30:34.080Z,0
2018-02-18T00:31:35.685Z,0
2018-02-18T00:32:37.287Z,0
2018-02-18T00:33:38.888Z,0
2018-02-18T00:34:40.488Z,0
2018-02-18T00:35:42.100Z,0
2018-02-18T00:36:43.696Z,0
2018-02-18T00:37:45.306Z,0
2018-02-18T00:38:46.912Z,0
2018-02-18T00:39:48.519Z,0
2018-02-18T00:40:50.121Z,0
2018-02-18T00:41:51.731Z,0
2018-02-18T00:42:53.333Z,0
2018-02-18T00:43:54.942Z,0
2018-02-18T00:44:56.550Z,0
2018-02-18T00:45:58.151Z,0
2018-02-18T00:46:59.753Z,0
2018-02-18T00:48:01.360Z,0
2018-02-18T00:49:02.968Z,0
2018-02-18T00:50:04.571Z,0
2018-02-18T00:51:06.180Z,0
2018-02-18T00:52:07.784Z,0
2018-02-18T00:53:09.389Z,0
2018-02-18T00:54:10.998Z,0
2018-02-18T00:55:12.608Z,0
2018-02-18T00:56:14.207Z,0
2018-02-18T00:57:15.812Z,0
2018-02-18T00:58:17.441Z,0
2018-02-18T00:59:19.034Z,0
2018-02-18T01:00:20.639Z,0
2018-02-18T01:01:22.244Z,0
2018-02-18T01:02:23.850Z,0
2018-02-18T01:03:25.452Z,0
2018-02-18T01:04:27.061Z,0
2018-02-18T01:05:28.668Z,0
2018-02-18T01:06:30.273Z,0
2018-02-18T01:07:31.876Z,0
2018-02-18T01:08:33.482Z,0
2018-02-18T01:09:35.087Z,0
2018-02-18T01:10:36.690Z,0
2018-02-18T01:11:38.293Z,0
2018-02-18T01:12:39.906Z,0
2018-02-18T01:13:41.513Z,0
2018-02-18T01:14:43.116Z,0
2018-02-18T01:15:44.720Z,0
2018-02-18T01:16:46.327Z,0
2018-02-18T01:17:47.934Z,0
2018-02-18T01:18:49.536Z,0
2018-02-18T01:19:51.143Z,0
2018-02-18T01:20:52.747Z,0
2018-02-18T01:21:54.357Z,0
2018-02-18T01:22:55.960Z,0
2018-02-18T01:23:57.567Z,0
2018-02-18T01:24:59.174Z,0
2018-02-18T01:26:00.781Z,0
2018-02-18T01:27:02.384Z,0
2018-02-18T01:28:03.990Z,0
2018-02-18T01:29:05.599Z,0
2018-02-18T01:30:07.197Z,0
2018-02-18T01:31:08.802Z,0
2018-02-18T01:32:10.403Z,0
2018-02-18T01:33:12.014Z,0
2018-02-18T01:34:13.615Z,0
2018-02-18T01:35:15.228Z,0
2018-02-18T01:36:16.835Z,0
2018-02-18T01:37:18.438Z,0
2018-02-18T01:38:20.040Z,0
2018-02-18T01:39:22.629Z,0
2018-02-18T01:40:24.236Z,0
2018-02-18T01:41:25.841Z,0
2018-02-18T01:42:27.446Z,0
2018-02-18T01:43:29.057Z,0
2018-02-18T01:44:30.657Z,0
2018-02-18T01:45:32.268Z,0
2018-02-18T01:46:33.874Z,0
2018-02-18T01:47:35.480Z,0
2018-02-18T01:48:37.087Z,0
2018-02-18T01:49:38.689Z,0
2018-02-18T01:50:40.302Z,0
2018-02-18T01:51:41.902Z,0
2018-02-18T01:52:43.510Z,0
2018-02-18T01:53:45.116Z,0
2018-02-18T01:54:46.724Z,0
2018-02-18T01:55:48.326Z,0
2018-02-18T01:56:49.932Z,0
2018-02-18T01:57:51.541Z,0
2018-02-18T01:58:53.146Z,0
2018-02-18T01:59:54.747Z,0
2018-02-18T02:00:56.349Z,0
2018-02-18T02:01:57.951Z,0
2018-02-18T02:02:59.553Z,0
2018-02-18T02:04:01.161Z,0
2018-02-18T02:05:02.765Z,0
2018-02-18T02:06:04.372Z,0
2018-02-18T02:07:05.976Z,0
2018-02-18T02:08:07.584Z,0
2018-02-18T02:09:09.186Z,0
2018-02-18T02:10:10.798Z,0
2018-02-18T02:11:12.402Z,0
2018-02-18T02:12:14.006Z,0
2018-02-18T02:13:15.608Z,0
2018-02-18T02:14:17.215Z,0
2018-02-18T02:15:18.820Z,0
2018-02-18T02:16:20.421Z,0
2018-02-18T02:17:22.032Z,0
2018-02-18T02:18:23.638Z,0
2018-02-18T02:19:25.248Z,0
2018-02-18T02:20:26.848Z,0
2018-02-18T02:21:28.454Z,0
2018-02-18T02:22:30.066Z,0
2018-02-18T02:23:31.664Z,0
2018-02-18T02:24:33.272Z,0
2018-02-18T02:25:34.876Z,0
2018-02-18T02:26:36.484Z,0
2018-02-18T02:27:38.087Z,0
2018-02-18T02:28:40.626Z,0
2018-02-18T02:29:42.236Z,0
2018-02-18T02:30:43.849Z,0
2018-02-18T02:31:45.458Z,0
2018-02-18T02:32:47.057Z,0
2018-02-18T02:33:48.668Z,0
2018-02-18T02:34:50.267Z,0
2018-02-18T02:35:51.870Z,0
2018-02-18T02:36:53.477Z,0
2018-02-18T02:37:55.086Z,0
2018-02-18T02:38:56.692Z,0
2018-02-18T02:39:58.305Z,0
2018-02-18T02:40:59.906Z,0
2018-02-18T02:42:01.511Z,0
2018-02-18T02:43:03.119Z,0
2018-02-18T02:44:04.720Z,0
2018-02-18T02:45:06.322Z,0
2018-02-18T02:46:07.929Z,0
2018-02-18T02:47:09.534Z,0
2018-02-18T02:48:11.146Z,0
2018-02-18T02:49:12.746Z,0
2018-02-18T02:50:14.351Z,0
2018-02-18T02:51:15.958Z,0
2018-02-18T02:52:17.632Z,0
2018-02-18T02:53:19.171Z,0
2018-02-18T02:54:20.775Z,0
2018-02-18T02:55:22.388Z,0
2018-02-18T02:56:23.993Z,0
2018-02-18T02:57:25.594Z,0
2018-02-18T02:58:27.199Z,0
2018-02-18T02:59:28.808Z,0
2018-02-18T03:00:30.415Z,0
2018-02-18T03:01:32.020Z,0
2018-02-18T03:02:33.630Z,0
2018-02-18T03:03:35.230Z,0
2018-02-18T03:04:36.838Z,0
2018-02-18T03:05:38.444Z,0
2018-02-18T03:06:40.047Z,0
2018-02-18T03:07:41.657Z,0
2018-02-18T03:08:43.260Z,0
2018-02-18T03:09:44.868Z,0
2018-02-18T03:10:46.468Z,0
2018-02-18T03:11:48.074Z,0
2018-02-18T03:12:49.681Z,0
2018-02-18T03:13:51.283Z,0
2018-02-18T03:14:52.887Z,0
2018-02-18T03:15:54.499Z,0
2018-02-18T03:16:56.108Z,0
2018-02-18T03:17:57.708Z,0
2018-02-18T03:18:59.316Z,0
2018-02-18T03:20:00.916Z,0
2018-02-18T03:21:02.520Z,0
2018-02-18T03:22:04.131Z,0
2018-02-18T03:23:05.732Z,0
2018-02-18T03:24:07.340Z,0
2018-02-18T03:25:08.945Z,0
2018-02-18T03:26:10.545Z,0
2018-02-18T03:27:12.149Z,0
2018-02-18T03:28:13.760Z,0
2018-02-18T03:29:15.360Z,0
2018-02-18T03:30:16.974Z,0
2018-02-18T03:31:18.576Z,0
2018-02-18T03:32:20.180Z,0
2018-02-18T03:33:21.781Z,0
2018-02-18T03:34:23.388Z,0
2018-02-18T03:35:24.995Z,0
2018-02-18T03:36:26.597Z,0
2018-02-18T03:37:28.202Z,0
2018-02-18T03:38:29.811Z,0
2018-02-18T03:39:31.418Z,0
2018-02-18T03:40:33.022Z,0
2018-02-18T03:41:34.632Z,0
2018-02-18T03:42:36.230Z,0
2018-02-18T03:43:37.837Z,0
2018-02-18T03:44:39.438Z,0
2018-02-18T03:45:41.058Z,0
2018-02-18T03:46:42.655Z,0
2018-02-18T03:47:44.262Z,0
2018-02-18T03:48:45.864Z,0
2018-02-18T03:49:47.472Z,0
2018-02-18T03:50:49.074Z,0
2018-02-18T03:51:50.679Z,0
2018-02-18T03:52:52.288Z,0
2018-02-18T03:53:53.892Z,0
2018-02-18T03:54:55.492Z,0
2018-02-18T03:55:57.100Z,0
2018-02-18T03:56:58.704Z,0
2018-02-18T03:58:00.309Z,0
2018-02-18T03:59:01.915Z,0
2018-02-18T04:00:03.528Z,0
2018-02-18T04:01:05.128Z,0
2018-02-18T04:02:06.729Z,0
2018-02-18T04:03:08.337Z,0
2018-02-18T04:04:09.941Z,0
2018-02-18T04:05:11.544Z,0
2018-02-18T04:06:13.149Z,0
2018-02-18T04:07:14.760Z,0
2018-02-18T04:08:16.366Z,0
2018-02-18T04:09:17.969Z,0
2018-02-18T04:10:19.570Z,0
2018-02-18T04:11:21.179Z,0
2018-02-18T04:12:22.787Z,0
2018-02-18T04:13:24.394Z,0
2018-02-18T04:14:25.995Z,0
2018-02-18T04:15:27.601Z,0
2018-02-18T04:16:29.207Z,0
2018-02-18T04:17:30.805Z,0
2018-02-18T04:18:32.409Z,0
2018-02-18T04:19:34.019Z,0
2018-02-18T04:20:35.627Z,0
2018-02-18T04:21:37.230Z,0
2018-02-18T04:22:38.833Z,0
2018-02-18T04:23:40.440Z,0
2018-02-18T04:24:42.042Z,0
2018-02-18T04:25:43.649Z,0
2018-02-18T04:26:45.255Z,0
2018-02-18T04:27:46.862Z,0
2018-02-18T04:28:48.476Z,0
2018-02-18T04:29:50.068Z,0
2018-02-18T04:30:51.676Z,0
2018-02-18T04:31:53.278Z,0
2018-02-18T04:32:54.882Z,0
2018-02-18T04:33:56.490Z,0
2018-02-18T04:34:58.094Z,0
2018-02-18T04:35:59.703Z,0
2018-02-18T04:37:01.301Z,0
2018-02-18T04:38:02.908Z,0
2018-02-18T04:39:04.509Z,0
2018-02-18T04:40:06.117Z,0
2018-02-18T04:41:07.721Z,0
2018-02-18T04:42:09.325Z,0
2018-02-18T04:43:10.930Z,0
2018-02-18T04:44:12.533Z,0
2018-02-18T04:45:14.139Z,0
2018-02-18T04:46:15.742Z,0
2018-02-18T04:47:17.350Z,0
2018-02-18T04:48:18.953Z,0
2018-02-18T04:49:20.562Z,0
2018-02-18T04:50:22.163Z,0
2018-02-18T04:51:23.769Z,0
2018-02-18T04:52:25.370Z,0
2018-02-18T04:53:26.976Z,0
2018-02-18T04:54:28.578Z,0
2018-02-18T04:55:30.186Z,0
2018-02-18T04:56:31.790Z,0
2018-02-18T04:57:33.396Z,0
2018-02-18T04:58:34.995Z,0
2018-02-18T04:59:36.602Z,0
2018-02-18T05:00:38.210Z,0
2018-02-18T05:01:39.813Z,0
2018-02-18T05:02:41.414Z,0
2018-02-18T05:03:43.020Z,0
2018-02-18T05:04:44.632Z,0
2018-02-18T05:05:46.233Z,0
2018-02-18T05:06:47.834Z,0
2018-02-18T05:07:49.435Z,0
2018-02-18T05:08:51.046Z,0
2018-02-18T05:09:52.650Z,0
2018-02-18T05:10:54.253Z,0
2018-02-18T05:11:55.859Z,0
2018-02-18T05:12:57.466Z,0
2018-02-18T05:13:59.076Z,0
2018-02-18T05:15:00.671Z,0
2018-02-18T05:16:02.279Z,0
2018-02-18T05:17:03.887Z,0
2018-02-18T05:18:05.489Z,0
2018-02-18T05:19:07.092Z,0
2018-02-18T05:20:08.696Z,0
2018-02-18T05:21:10.301Z,0
2018-02-18T05:22:11.906Z,0
2018-02-18T05:23:13.508Z,0
2018-02-18T05:24:15.111Z,0
2018-02-18T05:25:16.720Z,0
2018-02-18T05:26:18.331Z,0
2018-02-18T05:27:19.930Z,0
2018-02-18T05:28:21.532Z,0
2018-02-18T05:29:23.139Z,0
2018-02-18T05:30:24.742Z,0
2018-02-18T05:31:26.351Z,0
2018-02-18T05:32:27.958Z,0
2018-02-18T05:33:29.568Z,0
2018-02-18T05:34:31.173Z,0
2018-02-18T05:35:32.781Z,0
2018-02-18T05:36:34.383Z,0
2018-02-18T05:37:35.988Z,0
2018-02-18T05:38:37.590Z,0
2018-02-18T05:39:39.199Z,0
2018-02-18T05:40:40.801Z,0
2018-02-18T05:41:42.451Z,0
2018-02-18T05:42:44.006Z,0
2018-02-18T05:43:45.613Z,0
2018-02-18T05:44:47.215Z,0
2018-02-18T05:45:48.821Z,0
2018-02-18T05:46:50.429Z,0
2018-02-18T05:47:52.034Z,0
2018-02-18T05:48:53.642Z,0
2018-02-18T05:49:55.241Z,0
2018-02-18T05:50:56.852Z,0
2018-02-18T05:51:58.456Z,0
2018-02-18T05:53:00.057Z,0
2018-02-18T05:54:01.664Z,0
2018-02-18T05:55:03.267Z,0
2018-02-18T05:56:04.877Z,0
2018-02-18T05:57:06.477Z,0
2018-02-18T05:58:08.078Z,0
2018-02-18T05:59:09.684Z,0
2018-02-18T06:00:11.294Z,0
2018-02-18T06:01:12.903Z,0
2018-02-18T06:02:14.508Z,0
2018-02-18T06:03:16.113Z,0
2018-02-18T06:04:17.713Z,0
2018-02-18T06:05:19.316Z,4
2018-02-18T06:06:20.928Z,4
2018-02-18T06:07:22.523Z,0
2018-02-18T06:08:24.131Z,4
2018-02-18T06:09:25.740Z,4
2018-02-18T06:10:27.340Z,4
2018-02-18T06:11:28.941Z,4
2018-02-18T06:12:30.551Z,8
2018-02-18T06:13:32.157Z,8
2018-02-18T06:14:33.763Z,8
2018-02-18T06:15:35.363Z,8
2018-02-18T06:16:36.976Z,12
2018-02-18T06:17:38.574Z,16
2018-02-18T06:18:40.185Z,20
2018-02-18T06:19:41.791Z,24
2018-02-18T06:20:43.400Z,28
2018-02-18T06:21:45.009Z,32
2018-02-18T06:22:46.613Z,40
2018-02-18T06:23:48.224Z,48
2018-02-18T06:24:49.823Z,52
2018-02-18T06:25:51.426Z,60
2018-02-18T06:26:53.033Z,68
2018-02-18T06:27:54.641Z,80
2018-02-18T06:28:56.250Z,92
2018-02-18T06:29:57.900Z,108
2018-02-18T06:30:59.517Z,120
2018-02-18T06:32:01.127Z,136
2018-02-18T06:33:02.729Z,152
2018-02-18T06:34:04.341Z,168
2018-02-18T06:35:05.946Z,188
2018-02-18T06:36:07.562Z,208
2018-02-18T06:37:09.167Z,232
2018-02-18T06:38:10.784Z,252
2018-02-18T06:39:12.382Z,280
2018-02-18T06:40:13.992Z,304
2018-02-18T06:41:15.601Z,332
2018-02-18T06:42:17.208Z,364
2018-02-18T06:43:18.816Z,392
2018-02-18T06:44:20.425Z,424
2018-02-18T06:45:22.039Z,456
2018-02-18T06:46:23.647Z,488
2018-02-18T06:47:25.250Z,524
2018-02-18T06:48:26.859Z,564
2018-02-18T06:49:28.474Z,600
2018-02-18T06:50:30.088Z,640
2018-02-18T06:51:31.694Z,680
2018-02-18T06:52:33.307Z,724
2018-02-18T06:53:34.915Z,772
2018-02-18T06:54:36.522Z,812
2018-02-18T06:55:38.130Z,864
2018-02-18T06:56:39.740Z,912
2018-02-18T06:57:41.350Z,960
2018-02-18T06:58:42.956Z,1004
2018-02-18T06:59:44.570Z,1056
2018-02-18T07:00:46.177Z,1104
2018-02-18T07:01:47.788Z,1160
2018-02-18T07:02:49.400Z,1212
2018-02-18T07:03:51.007Z,1260
2018-02-18T07:04:52.666Z,1312
2018-02-18T07:05:54.284Z,1368
2018-02-18T07:06:55.895Z,1424
2018-02-18T07:07:57.505Z,1476
2018-02-18T07:08:59.110Z,1444
2018-02-18T07:10:01.262Z,1600
2018-02-18T07:11:02.878Z,1648
2018-02-18T07:12:04.486Z,1700
2018-02-18T07:13:06.105Z,1756
2018-02-18T07:14:07.713Z,1816
2018-02-18T07:15:09.324Z,1876
2018-02-18T07:16:10.934Z,1936
2018-02-18T07:17:12.542Z,2000
2018-02-18T07:18:14.158Z,2056
2018-02-18T07:19:15.767Z,2112
2018-02-18T07:20:17.382Z,2168
2018-02-18T07:21:18.995Z,2228
2018-02-18T07:22:20.603Z,2288
2018-02-18T07:23:22.219Z,2352
2018-02-18T07:24:23.829Z,2408
2018-02-18T07:25:25.434Z,2464
2018-02-18T07:26:27.051Z,2528
2018-02-18T07:27:28.661Z,2588
2018-02-18T07:28:30.277Z,2648
2018-02-18T07:29:31.894Z,2708
2018-02-18T07:30:33.530Z,2760
2018-02-18T07:31:35.117Z,2820
2018-02-18T07:32:36.731Z,2872
2018-02-18T07:33:38.346Z,2924
2018-02-18T07:34:39.956Z,2988
2018-02-18T07:35:41.570Z,3040
2018-02-18T07:36:43.174Z,3100
2018-02-18T07:37:44.788Z,3160
2018-02-18T07:38:46.394Z,3236
2018-02-18T07:39:48.009Z,3336
2018-02-18T07:40:49.618Z,3268
2018-02-18T07:41:51.233Z,3576
2018-02-18T07:42:52.846Z,3708
2018-02-18T07:43:54.459Z,3780
2018-02-18T07:44:56.071Z,3836
2018-02-18T07:45:57.685Z,3880
2018-02-18T07:46:59.293Z,4032
2018-02-18T07:48:00.928Z,4288
2018-02-18T07:49:02.536Z,4384
2018-02-18T07:50:04.150Z,4376
2018-02-18T07:51:05.761Z,4508
2018-02-18T07:52:07.375Z,4808
2018-02-18T07:53:08.985Z,5220
2018-02-18T07:54:11.334Z,5408
2018-02-18T07:55:12.950Z,5580
2018-02-18T07:56:14.565Z,5676
2018-02-18T07:57:16.177Z,5896
2018-02-18T07:58:17.785Z,6384
2018-02-18T07:59:19.406Z,6836
2018-02-18T08:00:21.016Z,7124
2018-02-18T08:01:22.627Z,7468
2018-02-18T08:02:24.232Z,7904
2018-02-18T08:03:25.841Z,8248
2018-02-18T08:04:27.450Z,8508
2018-02-18T08:05:29.063Z,8744
2018-02-18T08:06:30.672Z,8996
2018-02-18T08:07:32.291Z,9188
2018-02-18T08:08:33.910Z,9456
2018-02-18T08:09:35.654Z,9648
2018-02-18T08:10:37.266Z,9760
2018-02-18T08:11:38.876Z,9568
2018-02-18T08:12:40.481Z,9220
2018-02-18T08:13:42.095Z,8976
2018-02-18T08:14:43.700Z,8868
2018-02-18T08:15:45.313Z,9280
2018-02-18T08:16:46.928Z,9880
2018-02-18T08:17:48.557Z,9472
2018-02-18T08:18:50.151Z,8416
2018-02-18T08:19:51.763Z,7972
2018-02-18T08:20:53.368Z,7808
2018-02-18T08:21:54.982Z,7452
2018-02-18T08:22:56.590Z,6868
2018-02-18T08:23:58.203Z,6460
2018-02-18T08:24:59.812Z,6116
2018-02-18T08:26:01.424Z,5824
2018-02-18T08:27:03.029Z,5736
2018-02-18T08:28:04.645Z,5712
2018-02-18T08:29:06.250Z,5904
2018-02-18T08:30:07.866Z,6516
2018-02-18T08:31:09.476Z,7648
2018-02-18T08:32:11.086Z,8936
2018-02-18T08:33:12.701Z,10704
2018-02-18T08:34:14.307Z,12116
2018-02-18T08:35:15.917Z,12888
2018-02-18T08:36:17.527Z,13556
2018-02-18T08:37:19.142Z,14348
2018-02-18T08:38:20.753Z,15456
2018-02-18T08:39:22.367Z,16480
2018-02-18T08:40:23.976Z,17984
2018-02-18T08:41:25.593Z,19488
2018-02-18T08:42:27.202Z,19936
2018-02-18T08:43:28.819Z,19456
2018-02-18T08:44:30.430Z,22336
2018-02-18T08:45:32.047Z,33344
2018-02-18T08:46:33.660Z,41568
2018-02-18T08:47:35.277Z,40960
2018-02-18T08:48:36.886Z,41984
2018-02-18T08:49:38.504Z,41920
2018-02-18T08:50:40.120Z,41888
2018-02-18T08:51:41.730Z,42464
2018-02-18T08:52:43.345Z,42176
2018-02-18T08:53:44.959Z,41664
2018-02-18T08:54:46.579Z,41920
2018-02-18T08:55:48.193Z,42208
2018-02-18T08:56:49.802Z,41024
2018-02-18T08:57:51.417Z,31936
2018-02-18T08:58:53.039Z,22848
2018-02-18T08:59:54.655Z,25824
2018-02-18T09:00:56.271Z,36768
2018-02-18T09:01:57.885Z,43264
2018-02-18T09:02:59.505Z,44256
2018-02-18T09:04:01.122Z,44064
2018-02-18T09:05:02.735Z,43104
2018-02-18T09:06:04.356Z,45408
2018-02-18T09:07:05.971Z,44800
2018-02-18T09:08:07.593Z,46240
2018-02-18T09:09:09.297Z,44992
2018-02-18T09:10:10.973Z,43936
2018-02-18T09:11:12.556Z,46272
2018-02-18T09:12:14.177Z,46112
2018-02-18T09:13:15.793Z,46976
2018-02-18T09:14:17.416Z,47296
2018-02-18T09:15:19.040Z,40416
2018-02-18T09:16:20.661Z,26464
2018-02-18T09:17:22.277Z,24704
2018-02-18T09:18:23.895Z,34528
2018-02-18T09:19:25.520Z,38880
2018-02-18T09:20:27.130Z,39424
2018-02-18T09:21:28.764Z,40384
2018-02-18T09:22:30.383Z,44512
2018-02-18T09:23:32.008Z,49536
2018-02-18T09:24:33.628Z,52160
2018-02-18T09:25:35.246Z,50880
2018-02-18T09:26:36.865Z,45152
2018-02-18T09:27:38.489Z,30368
2018-02-18T09:28:40.107Z,19808
2018-02-18T09:29:41.733Z,19936
2018-02-18T09:30:43.351Z,20512
2018-02-18T09:31:44.974Z,21216
2018-02-18T09:32:46.591Z,24672
2018-02-18T09:33:48.216Z,42592
2018-02-18T09:34:49.834Z,56992
2018-02-18T09:35:51.458Z,57408
2018-02-18T09:36:54.062Z,57184
2018-02-18T09:37:55.673Z,57024
2018-02-18T09:38:57.295Z,57728
2018-02-18T09:39:58.919Z,58208
2018-02-18T09:41:00.540Z,57408
2018-02-18T09:42:02.165Z,57568
2018-02-18T09:43:03.783Z,58784
2018-02-18T09:44:05.402Z,60480
2018-02-18T09:45:07.026Z,60128
2018-02-18T09:46:08.644Z,58304
2018-02-18T09:47:10.266Z,58784
2018-02-18T09:48:11.884Z,59616
2018-02-18T09:49:13.508Z,61664
2018-02-18T09:50:15.127Z,62816
2018-02-18T09:51:16.751Z,63456
2018-02-18T09:52:18.375Z,62976
2018-02-18T09:53:19.989Z,62176
2018-02-18T09:54:21.613Z,62144
2018-02-18T09:55:23.230Z,62272
2018-02-18T09:56:24.849Z,63200
2018-02-18T09:57:26.504Z,62816
2018-02-18T09:58:28.092Z,62528
2018-02-18T09:59:29.713Z,59744
2018-02-18T10:00:31.336Z,60224
2018-02-18T10:01:32.959Z,62112
2018-02-18T10:02:34.575Z,62880
2018-02-18T10:03:36.197Z,64480
2018-02-18T10:04:37.825Z,63840
2018-02-18T10:05:39.448Z,62752
2018-02-18T10:06:41.069Z,63328
2018-02-18T10:07:42.688Z,65344
2018-02-18T10:08:44.311Z,63456
2018-02-18T10:09:45.936Z,64736
2018-02-18T10:10:47.556Z,62688
2018-02-18T10:11:49.174Z,63840
2018-02-18T10:12:50.801Z,63776
2018-02-18T10:13:52.428Z,64672
2018-02-18T10:14:54.045Z,63872
2018-02-18T10:15:55.665Z,64576
2018-02-18T10:16:57.293Z,64768
2018-02-18T10:17:58.917Z,64256
2018-02-18T10:19:00.542Z,63744
2018-02-18T10:20:02.168Z,64960
2018-02-18T10:21:03.790Z,65408
2018-02-18T10:22:05.410Z,65248
2018-02-18T10:23:07.035Z,64800
2018-02-18T10:24:08.656Z,65568
2018-02-18T10:25:10.283Z,65184
2018-02-18T10:26:11.901Z,65600
2018-02-18T10:27:13.529Z,64768
2018-02-18T10:28:15.156Z,64864
2018-02-18T10:29:16.775Z,65664
2018-02-18T10:30:18.411Z,65152
2018-02-18T10:31:20.041Z,63520
2018-02-18T10:32:21.662Z,66880
2018-02-18T10:33:23.285Z,67232
2018-02-18T10:34:24.909Z,65088
2018-02-18T10:35:26.533Z,64480
2018-02-18T10:36:28.173Z,61504
2018-02-18T10:37:29.794Z,63328
2018-02-18T10:38:31.424Z,54432
2018-02-18T10:39:33.041Z,56832
2018-02-18T10:40:34.664Z,55104
2018-02-18T10:41:36.301Z,49344
2018-02-18T10:42:37.930Z,53248
2018-02-18T10:43:39.546Z,54880
2018-02-18T10:44:41.172Z,52640
2018-02-18T10:45:42.791Z,50496
2018-02-18T10:46:44.417Z,49536
2018-02-18T10:47:46.039Z,53312
2018-02-18T10:48:47.683Z,52416
2018-02-18T10:49:49.304Z,55488
2018-02-18T10:50:50.928Z,60032
2018-02-18T10:51:52.553Z,62656
2018-02-18T10:52:54.176Z,62752
2018-02-18T10:53:55.803Z,62208
2018-02-18T10:54:57.421Z,61856
2018-02-18T10:55:59.050Z,60192
2018-02-18T10:57:00.675Z,59040
2018-02-18T10:58:02.292Z,58304
2018-02-18T10:59:03.912Z,58592
2018-02-18T11:00:05.538Z,59168
2018-02-18T11:01:07.157Z,59744
2018-02-18T11:02:08.799Z,57152
2018-02-18T11:03:10.419Z,54016
2018-02-18T11:04:12.045Z,53824
2018-02-18T11:05:13.663Z,55872
2018-02-18T11:06:15.287Z,57408
2018-02-18T11:07:16.910Z,55296
2018-02-18T11:08:18.537Z,31328
2018-02-18T11:09:20.155Z,16196
2018-02-18T11:10:21.773Z,17760
2018-02-18T11:11:23.451Z,37024
2018-02-18T11:12:25.019Z,58144
2018-02-18T11:13:26.635Z,60096
2018-02-18T11:14:28.253Z,52000
2018-02-18T11:15:29.874Z,42656
2018-02-18T11:16:31.499Z,17888
2018-02-18T11:17:33.118Z,14536
2018-02-18T11:18:34.744Z,15460
2018-02-18T11:19:36.366Z,15436
2018-02-18T11:20:37.980Z,31200
2018-02-18T11:21:39.604Z,58208
2018-02-18T11:22:41.224Z,59488
2018-02-18T11:23:42.841Z,57472
2018-02-18T11:24:44.464Z,45920
2018-02-18T11:25:46.085Z,22368
2018-02-18T11:26:47.705Z,14832
2018-02-18T11:27:49.324Z,14720
2018-02-18T11:28:50.941Z,15912
2018-02-18T11:29:52.565Z,28224
2018-02-18T11:30:54.186Z,48320
2018-02-18T11:31:55.809Z,52992
2018-02-18T11:32:57.428Z,50656
2018-02-18T11:33:59.053Z,42816
2018-02-18T11:35:00.667Z,22944
2018-02-18T11:36:02.284Z,14680
2018-02-18T11:37:03.906Z,14168
2018-02-18T11:38:05.522Z,14660
2018-02-18T11:39:07.147Z,19200
2018-02-18T11:40:08.769Z,17632
2018-02-18T11:41:10.390Z,13692
2018-02-18T11:42:12.064Z,13344
2018-02-18T11:43:13.625Z,12420
2018-02-18T11:44:15.243Z,13412
2018-02-18T11:45:16.866Z,12676
2018-02-18T11:46:18.497Z,13352
2018-02-18T11:47:20.119Z,13836
2018-02-18T11:48:21.731Z,14836
2018-02-18T11:49:23.354Z,16276
2018-02-18T11:50:24.975Z,15284
2018-02-18T11:51:26.589Z,13596
2018-02-18T11:52:28.211Z,13272
2018-02-18T11:53:29.829Z,12012
2018-02-18T11:54:31.450Z,11476
2018-02-18T11:55:33.063Z,11448
2018-02-18T11:56:34.679Z,12124
2018-02-18T11:57:36.300Z,12956
2018-02-18T11:58:37.916Z,16408
2018-02-18T11:59:39.532Z,21440
2018-02-18T12:00:41.150Z,25024
2018-02-18T12:01:42.769Z,17824
2018-02-18T12:02:44.382Z,13308
2018-02-18T12:03:46.051Z,12884
2018-02-18T12:04:47.624Z,12804
2018-02-18T12:05:49.239Z,13532
2018-02-18T12:06:50.857Z,14036
2018-02-18T12:07:52.479Z,12880
2018-02-18T12:08:54.092Z,12516
2018-02-18T12:09:55.717Z,12220
2018-02-18T12:10:57.327Z,11980
2018-02-18T12:11:58.945Z,11876
2018-02-18T12:13:00.564Z,11776
2018-02-18T12:14:02.178Z,11640
2018-02-18T12:15:03.801Z,11552
2018-02-18T12:16:05.426Z,11548
2018-02-18T12:17:07.041Z,11528
2018-02-18T12:18:08.659Z,11380
2018-02-18T12:19:10.278Z,11304
2018-02-18T12:20:11.894Z,11248
2018-02-18T12:21:13.512Z,11152
2018-02-18T12:22:15.131Z,11136
2018-02-18T12:23:16.747Z,11148
2018-02-18T12:24:18.366Z,11128
2018-02-18T12:25:19.982Z,11148
2018-02-18T12:26:21.596Z,11016
2018-02-18T12:27:23.214Z,11024
2018-02-18T12:28:25.448Z,10960
2018-02-18T12:29:27.067Z,10856
2018-02-18T12:30:28.687Z,10660
2018-02-18T12:31:30.305Z,10584
2018-02-18T12:32:31.931Z,10500
2018-02-18T12:33:33.546Z,10400
2018-02-18T12:34:35.165Z,10356
2018-02-18T12:35:36.786Z,10224
2018-02-18T12:36:38.401Z,10108
2018-02-18T12:37:40.017Z,10076
2018-02-18T12:38:41.637Z,10072
2018-02-18T12:39:43.256Z,9948
2018-02-18T12:40:44.871Z,9944
2018-02-18T12:41:46.483Z,9860
2018-02-18T12:42:48.106Z,5320
2018-02-18T12:43:49.726Z,9868
2018-02-18T12:44:51.341Z,9868
2018-02-18T12:45:52.955Z,9716
2018-02-18T12:46:54.578Z,9644
2018-02-18T12:47:56.230Z,9668
2018-02-18T12:48:57.809Z,9672
2018-02-18T12:49:59.424Z,9660
2018-02-18T12:51:01.044Z,9636
2018-02-18T12:52:02.659Z,9508
2018-02-18T12:53:04.276Z,9452
2018-02-18T12:54:05.891Z,9436
2018-02-18T12:55:07.508Z,9420
2018-02-18T12:56:09.123Z,9460
2018-02-18T12:57:10.741Z,9376
2018-02-18T12:58:12.357Z,9452
2018-02-18T12:59:13.982Z,9400
2018-02-18T13:00:15.628Z,9244
2018-02-18T13:01:17.206Z,9160
2018-02-18T13:02:18.827Z,9164
2018-02-18T13:03:20.440Z,9212
2018-02-18T13:04:22.060Z,9096
2018-02-18T13:05:23.675Z,9112
2018-02-18T13:06:25.294Z,9076
2018-02-18T13:07:26.907Z,9144
2018-02-18T13:08:28.526Z,9236
2018-02-18T13:09:30.138Z,9172
2018-02-18T13:10:31.762Z,9076
2018-02-18T13:11:33.373Z,8968
2018-02-18T13:12:34.995Z,8956
2018-02-18T13:13:36.611Z,9024
2018-02-18T13:14:38.230Z,8976
2018-02-18T13:15:39.843Z,8956
2018-02-18T13:16:41.462Z,8920
2018-02-18T13:17:43.075Z,8860
2018-02-18T13:18:44.690Z,8832
2018-02-18T13:19:46.313Z,8884
2018-02-18T13:20:47.933Z,8820
2018-02-18T13:21:49.543Z,8784
2018-02-18T13:22:51.156Z,8904
2018-02-18T13:23:52.777Z,8844
2018-02-18T13:24:54.394Z,8728
2018-02-18T13:25:56.009Z,8660
2018-02-18T13:26:57.659Z,8564
2018-02-18T13:27:59.244Z,8544
2018-02-18T13:29:00.857Z,8612
2018-02-18T13:30:02.475Z,8748
2018-02-18T13:31:04.092Z,8828
2018-02-18T13:32:05.707Z,8796
2018-02-18T13:33:07.322Z,8924
2018-02-18T13:34:08.939Z,9064
2018-02-18T13:35:10.560Z,9140
2018-02-18T13:36:12.166Z,9188
2018-02-18T13:37:13.782Z,8680
2018-02-18T13:38:15.404Z,8656
2018-02-18T13:39:17.023Z,8524
2018-02-18T13:40:18.637Z,8656
2018-02-18T13:41:20.258Z,8620
2018-02-18T13:42:21.873Z,8824
2018-02-18T13:43:23.487Z,8356
2018-02-18T13:44:25.099Z,7460
2018-02-18T13:45:26.716Z,6476
2018-02-18T13:46:28.329Z,7344
2018-02-18T13:47:29.946Z,7572
2018-02-18T13:48:31.568Z,6568
2018-02-18T13:49:33.249Z,5392
2018-02-18T13:50:35.035Z,5496
2018-02-18T13:51:36.629Z,5912
2018-02-18T13:52:38.261Z,6112
2018-02-18T13:53:39.878Z,6348
2018-02-18T13:54:41.489Z,6632
2018-02-18T13:55:43.108Z,7236
2018-02-18T13:56:44.729Z,7164
2018-02-18T13:57:46.344Z,6952
2018-02-18T13:58:47.962Z,8488
2018-02-18T13:59:49.577Z,8440
2018-02-18T14:00:51.189Z,7888
2018-02-18T14:01:52.807Z,7820
2018-02-18T14:02:54.425Z,7720
2018-02-18T14:03:56.040Z,7368
2018-02-18T14:04:57.659Z,7500
2018-02-18T14:05:59.274Z,7468
2018-02-18T14:07:00.888Z,7492
2018-02-18T14:08:02.499Z,7704
2018-02-18T14:09:04.118Z,8204
2018-02-18T14:10:05.734Z,8784
2018-02-18T14:11:07.367Z,9308